createdAt,value
2023-03-15T00:02:07.346Z,82.54
2023-03-15T00:07:09.118Z,82.33
2023-03-15T00:12:12.263Z,84.84
2023-03-15T00:17:13.898Z,85.94
2023-03-15T00:22:15.686Z,86.11
2023-03-15T00:27:17.331Z,86.47
2023-03-15T00:32:18.950Z,87.24
2023-03-15T00:37:21.602Z,88.19
2023-03-15T00:42:27.531Z,87.69
2023-03-15T00:47:29.200Z,89.22
2023-03-15T00:52:36.073Z,89.31
2023-03-15T00:57:37.695Z,88.31
2023-03-15T01:02:39.634Z,87.83
2023-03-15T01:07:41.354Z,86.94
2023-03-15T01:12:43.118Z,86.72
2023-03-15T01:17:44.733Z,86.66
2023-03-15T01:22:46.527Z,87.72
2023-03-15T01:27:49.564Z,87.53
2023-03-15T01:32:51.227Z,88.83
2023-03-15T01:37:53.237Z,90.32
2023-03-15T01:43:04.529Z,91.48
2023-03-15T01:48:06.516Z,94.03
2023-03-15T01:53:08.535Z,95.34
2023-03-15T01:58:12.727Z,96.56
2023-03-15T02:03:21.692Z,94.72
2023-03-15T02:08:29.316Z,94.68
2023-03-15T02:13:33.619Z,95.96
2023-03-15T02:18:41.294Z,98.39
2023-03-15T02:23:47.294Z,99.20
2023-03-15T02:28:50.117Z,97.89
2023-03-15T02:33:57.455Z,98.30
2023-03-15T02:38:59.490Z,99.78
2023-03-15T02:44:06.498Z,97.66
2023-03-15T02:49:09.040Z,99.01
2023-03-15T02:54:10.760Z,99.51
2023-03-15T02:59:12.913Z,100.00
2023-03-15T03:04:14.818Z,100.00
2023-03-15T03:09:16.972Z,100.00
2023-03-15T03:14:18.759Z,100.00
2023-03-15T03:19:25.618Z,100.00
2023-03-15T03:24:27.690Z,100.00
2023-03-15T03:29:29.892Z,97.56
2023-03-15T03:34:35.977Z,97.00
2023-03-15T03:39:37.654Z,96.05
2023-03-15T03:44:40.541Z,99.42
2023-03-15T03:49:42.938Z,100.00
2023-03-15T03:54:44.547Z,100.00
2023-03-15T03:59:46.362Z,98.38
2023-03-15T04:04:50.434Z,95.98
2023-03-15T04:09:55.095Z,94.89
2023-03-15T04:14:56.874Z,93.80
2023-03-15T04:20:02.069Z,92.95
2023-03-15T04:25:07.384Z,91.19
2023-03-15T04:30:29.703Z,90.63
2023-03-15T04:35:47.309Z,89.90
2023-03-15T04:41:11.059Z,88.83
2023-03-15T04:46:34.021Z,88.23
2023-03-15T04:52:11.198Z,88.62
2023-03-15T04:57:32.619Z,88.24
2023-03-15T05:03:06.038Z,87.57
2023-03-15T05:08:20.967Z,85.55
2023-03-15T05:13:41.020Z,86.11
2023-03-15T05:18:51.158Z,85.48
2023-03-15T05:24:09.594Z,85.27
2023-03-15T05:29:27.574Z,85.37
2023-03-15T05:34:38.345Z,84.76
2023-03-15T05:39:52.759Z,84.51
2023-03-15T05:45:14.786Z,83.72
2023-03-15T05:50:39.430Z,84.44
2023-03-15T05:55:59.940Z,83.83
2023-03-15T06:01:21.291Z,83.94
2023-03-15T06:06:37.089Z,83.25
2023-03-15T06:11:41.902Z,82.88
2023-03-15T06:16:47.372Z,81.34
2023-03-15T06:21:49.177Z,81.25
2023-03-15T06:27:02.771Z,79.88
2023-03-15T06:32:05.467Z,79.84
2023-03-15T06:37:09.359Z,78.58
2023-03-15T06:42:13.853Z,78.55
2023-03-15T06:47:15.622Z,75.98
2023-03-15T06:52:18.053Z,76.36
2023-03-15T06:57:19.734Z,75.20
2023-03-15T07:02:21.379Z,74.76
2023-03-15T07:07:22.996Z,74.47
2023-03-15T07:12:24.674Z,73.81
2023-03-15T07:17:26.351Z,73.72
2023-03-15T07:22:28.058Z,72.52
2023-03-15T07:27:30.295Z,69.84
2023-03-15T07:32:32.889Z,65.56
2023-03-15T07:37:34.818Z,58.83
2023-03-15T07:42:37.337Z,55.07
2023-03-15T07:47:38.974Z,56.27
2023-03-15T07:52:41.045Z,57.45
2023-03-15T07:57:42.672Z,55.60
2023-03-15T08:02:44.796Z,52.22
2023-03-15T08:07:48.276Z,52.20
2023-03-15T08:12:49.927Z,53.97
2023-03-15T08:17:51.618Z,53.90
2023-03-15T08:22:53.417Z,51.96
2023-03-15T08:27:55.139Z,51.82
2023-03-15T08:32:56.839Z,59.43
2023-03-15T08:37:58.510Z,62.61
2023-03-15T08:43:00.169Z,64.73
2023-03-15T08:48:02.281Z,66.13
2023-03-15T08:53:03.915Z,67.28
2023-03-15T08:58:05.597Z,74.97
2023-03-15T09:03:07.222Z,85.59
2023-03-15T09:08:08.914Z,91.11
2023-03-15T09:13:11.205Z,92.20
2023-03-15T09:18:12.896Z,90.93
2023-03-15T09:23:14.931Z,86.76
2023-03-15T09:28:16.608Z,82.98
2023-03-15T09:33:18.490Z,79.36
2023-03-15T09:38:22.158Z,77.61
2023-03-15T09:43:35.791Z,77.31
2023-03-15T09:48:59.938Z,76.88
2023-03-15T09:54:20.462Z,77.29
2023-03-15T09:59:34.748Z,76.68
2023-03-15T10:04:40.607Z,76.05
2023-03-15T10:09:43.566Z,77.47
2023-03-15T10:15:22.300Z,76.79
2023-03-15T10:20:34.285Z,78.07
2023-03-15T10:25:37.562Z,78.59
2023-03-15T10:30:44.749Z,78.10
2023-03-15T10:35:46.470Z,78.85
2023-03-15T10:40:49.380Z,78.60
2023-03-15T10:46:11.545Z,78.35
2023-03-15T10:51:27.112Z,77.93
2023-03-15T10:56:35.323Z,78.38
2023-03-15T11:01:37.612Z,78.43
2023-03-15T11:06:49.427Z,78.12
2023-03-15T11:11:53.303Z,79.25
2023-03-15T11:16:57.046Z,78.14
2023-03-15T11:22:01.379Z,79.08
2023-03-15T11:27:09.900Z,77.36
2023-03-15T11:32:15.676Z,78.30
2023-03-15T11:37:25.526Z,78.80
2023-03-15T11:42:36.866Z,78.98
2023-03-15T11:47:54.859Z,78.33
2023-03-15T11:53:02.930Z,78.82
2023-03-15T11:58:42.508Z,76.74
2023-03-15T12:03:45.110Z,75.95
2023-03-15T12:08:52.869Z,73.25
2023-03-15T12:13:57.520Z,72.37
2023-03-15T12:19:01.403Z,70.28
2023-03-15T12:24:06.712Z,69.71
2023-03-15T12:29:17.912Z,68.74
2023-03-15T12:34:31.851Z,70.86
2023-03-15T12:39:40.846Z,71.39
2023-03-15T12:44:43.356Z,74.31
2023-03-15T12:49:46.245Z,73.29
2023-03-15T12:54:54.730Z,73.31
2023-03-15T12:59:59.071Z,74.90
2023-03-15T13:05:13.877Z,75.54
2023-03-15T13:10:31.135Z,75.64
2023-03-15T13:15:57.328Z,74.72
2023-03-15T13:21:15.592Z,76.46
2023-03-15T13:26:21.587Z,73.23
2023-03-15T13:31:25.377Z,71.78
2023-03-15T13:36:44.931Z,66.14
2023-03-15T13:41:47.839Z,63.22
2023-03-15T13:46:50.934Z,63.66
2023-03-15T13:51:53.459Z,66.52
2023-03-15T13:57:12.991Z,73.84
2023-03-15T14:02:21.066Z,74.41
2023-03-15T14:07:46.603Z,74.49
2023-03-15T14:12:49.753Z,74.60
2023-03-15T14:17:57.620Z,71.04
2023-03-15T14:23:01.478Z,70.37
2023-03-15T14:28:05.546Z,68.55
2023-03-15T14:33:08.853Z,69.48
2023-03-15T14:38:23.584Z,69.96
2023-03-15T14:43:25.203Z,70.73
2023-03-15T14:48:28.944Z,69.80
2023-03-15T14:53:35.814Z,71.38
2023-03-15T14:58:37.589Z,69.66
2023-03-15T15:03:53.635Z,69.95
2023-03-15T15:08:58.869Z,69.48
2023-03-15T15:14:00.880Z,67.17
2023-03-15T15:19:02.744Z,65.78
2023-03-15T15:24:11.596Z,66.58
2023-03-15T15:29:14.935Z,65.38
2023-03-15T15:34:16.552Z,65.56
2023-03-15T15:39:23.736Z,66.02
2023-03-15T15:44:26.094Z,65.59
2023-03-15T15:49:28.217Z,64.74
2023-03-15T15:54:35.778Z,63.19
2023-03-15T15:59:37.454Z,64.17
2023-03-15T16:04:41.711Z,64.19
2023-03-15T16:09:46.407Z,64.44
2023-03-15T16:14:48.116Z,63.78
2023-03-15T16:19:50.650Z,64.52
2023-03-15T16:24:54.805Z,66.00
2023-03-15T16:29:56.588Z,68.68
2023-03-15T16:34:58.220Z,69.07
2023-03-15T16:40:01.662Z,70.27
2023-03-15T16:45:12.500Z,70.78
2023-03-15T16:50:14.640Z,72.48
2023-03-15T16:55:19.991Z,72.87
2023-03-15T17:00:22.243Z,73.76
2023-03-15T17:05:24.884Z,75.31
2023-03-15T17:10:32.733Z,74.61
2023-03-15T17:15:34.360Z,74.23
2023-03-15T17:20:35.984Z,75.33
2023-03-15T17:25:38.895Z,75.64
2023-03-15T17:30:41.051Z,75.43
2023-03-15T17:35:54.022Z,74.80
2023-03-15T17:40:55.992Z,74.99
2023-03-15T17:45:57.713Z,76.04
2023-03-15T17:50:59.385Z,74.81
2023-03-15T17:56:01.060Z,74.44
2023-03-15T18:01:04.514Z,76.50
2023-03-15T18:06:06.569Z,79.18
2023-03-15T18:11:17.200Z,80.61
2023-03-15T18:16:18.972Z,80.67
2023-03-15T18:21:24.322Z,80.37
2023-03-15T18:26:25.973Z,80.83
2023-03-15T18:31:27.667Z,81.24
2023-03-15T18:36:29.902Z,82.02
2023-03-15T18:41:31.544Z,82.22
2023-03-15T18:46:33.424Z,83.29
2023-03-15T18:51:36.963Z,84.25
2023-03-15T18:56:38.657Z,84.60
2023-03-15T19:01:40.339Z,87.27
2023-03-15T19:06:41.978Z,89.30
2023-03-15T19:11:43.620Z,90.65
2023-03-15T19:16:45.389Z,91.39
2023-03-15T19:21:47.169Z,91.94
2023-03-15T19:26:48.813Z,93.08
2023-03-15T19:31:50.516Z,93.72
2023-03-15T19:36:52.301Z,94.44
2023-03-15T19:41:54.112Z,94.82
2023-03-15T19:46:56.412Z,95.79
2023-03-15T19:51:58.045Z,95.43
2023-03-15T19:57:00.946Z,95.96
2023-03-15T20:02:02.695Z,96.69
2023-03-15T20:07:04.903Z,97.74
2023-03-15T20:12:07.757Z,97.96
2023-03-15T20:17:09.399Z,97.81
2023-03-15T20:22:11.027Z,99.26
2023-03-15T20:27:13.343Z,99.01
2023-03-15T20:32:15.029Z,99.15
2023-03-15T20:37:16.729Z,98.73
2023-03-15T20:42:19.488Z,99.63
2023-03-15T20:47:21.136Z,100.00
2023-03-15T20:52:22.767Z,100.00
2023-03-15T20:57:24.422Z,100.00
2023-03-15T21:02:26.049Z,100.00
2023-03-15T21:07:27.713Z,100.00
2023-03-15T21:12:30.226Z,100.00
2023-03-15T21:17:31.968Z,100.00
2023-03-15T21:22:33.862Z,99.74
2023-03-15T21:27:35.591Z,100.00
2023-03-15T21:32:38.373Z,99.42
2023-03-15T21:37:40.323Z,100.00
2023-03-15T21:42:43.582Z,100.00
2023-03-15T21:47:47.060Z,100.00
2023-03-15T21:52:49.014Z,100.00
2023-03-15T21:57:51.853Z,100.00
2023-03-15T22:02:55.626Z,100.00
2023-03-15T22:07:57.434Z,100.00
2023-03-15T22:12:59.062Z,100.00
2023-03-15T22:18:02.274Z,100.00
2023-03-15T22:23:04.472Z,100.00
2023-03-15T22:28:06.529Z,100.00
2023-03-15T22:33:08.788Z,100.00
2023-03-15T22:38:10.585Z,100.00
2023-03-15T22:43:12.199Z,100.00
2023-03-15T22:48:13.833Z,100.00
2023-03-15T22:53:15.437Z,100.00
2023-03-15T22:58:17.045Z,100.00
2023-03-15T23:03:19.400Z,100.00
2023-03-15T23:08:22.818Z,100.00
2023-03-15T23:13:24.621Z,100.00
2023-03-15T23:18:26.253Z,100.00
2023-03-15T23:23:27.862Z,100.00
2023-03-15T23:28:29.491Z,100.00
2023-03-15T23:33:34.250Z,100.00
2023-03-15T23:38:35.912Z,100.00
2023-03-15T23:43:37.523Z,100.00
2023-03-15T23:48:39.154Z,100.00
2023-03-15T23:53:40.764Z,100.00
2023-03-15T23:58:42.394Z,100.00
